Time;durP1;ratioP1;P1;durP2;ratioP2;P2;SDS_P1;SDS_P2;PMS_P1;PMS_P2;Temp;Humidity;BMP_temperature;BMP_pressure;BME280_temperature;BME280_humidity;BME280_pressure;Samples;Min_cycle;Max_cycle;Signal;HPM_P1;HPM_P2
2021/11/13 00:00:39;;;;;;;60.23;32.75;;;;;;;1.63;78.59;100367.28;1717740;82;20961;-68
2021/11/13 00:03:07;;;;;;;62.10;33.18;;;;;;;1.62;78.57;100371.81;1718218;82;21602;-69
2021/11/13 00:05:33;;;;;;;57.83;33.75;;;;;;;1.58;78.52;100372.41;1715028;82;21027;-68
2021/11/13 00:08:00;;;;;;;60.08;32.63;;;;;;;1.53;78.61;100371.64;1712032;82;21141;-68
2021/11/13 00:10:27;;;;;;;60.83;32.58;;;;;;;1.46;78.56;100374.80;1671039;85;21094;-69
2021/11/13 00:12:54;;;;;;;;;;;;;;;1.42;78.62;100377.56;1734486;82;21023;-68
2021/11/13 00:15:22;;;;;;;52.45;27.67;;;;;;;1.40;78.55;100375.59;1735103;82;20114;-68
2021/11/13 00:17:50;;;;;;;46.48;26.80;;;;;;;1.33;78.69;100378.25;1721075;82;21616;-69
2021/11/13 00:20:18;;;;;;;53.75;27.70;;;;;;;1.31;78.80;100374.11;1714147;82;21015;-68
2021/11/13 00:22:44;;;;;;;45.08;25.12;;;;;;;1.30;78.88;100377.30;1722630;82;21103;-68
2021/11/13 00:25:11;;;;;;;44.23;24.92;;;;;;;1.26;78.93;100375.20;1726443;82;21043;-69
2021/11/13 00:27:39;;;;;;;42.50;24.98;;;;;;;1.20;79.06;100376.83;1731100;82;21092;-68
2021/11/13 00:30:07;;;;;;;41.53;24.52;;;;;;;1.15;79.21;100377.08;1721020;82;21032;-68
2021/11/13 00:32:33;;;;;;;41.02;23.07;;;;;;;1.13;79.32;100375.11;1715043;82;21100;-68
2021/11/13 00:35:00;;;;;;;37.53;22.70;;;;;;;1.14;79.40;100383.45;1737333;82;21043;-68
2021/11/13 00:37:27;;;;;;;39.18;22.30;;;;;;;1.14;79.42;100376.23;1704408;82;21074;-69
2021/11/13 00:39:53;;;;;;;;;;;;;;;1.16;79.42;100390.30;1741522;82;21031;-68
2021/11/13 00:42:19;;;;;;;33.13;19.90;;;;;;;1.16;79.44;100388.12;1729078;82;20409;-68
2021/11/13 00:44:46;;;;;;;32.45;20.50;;;;;;;1.12;79.61;100387.69;1727334;82;21530;-68
2021/11/13 00:47:12;;;;;;;33.83;19.48;;;;;;;1.09;79.74;100386.74;1730591;82;21653;-68
2021/11/13 00:49:39;;;;;;;36.55;20.60;;;;;;;1.02;79.89;100391.22;1714959;82;21059;-68
2021/11/13 00:52:06;;;;;;;32.83;19.95;;;;;;;0.97;80.03;100386.44;1720846;82;21122;-68
2021/11/13 00:54:33;;;;;;;38.53;22.05;;;;;;;0.96;80.07;100389.30;1733451;82;21000;-68
2021/11/13 00:57:01;;;;;;;39.45;21.80;;;;;;;0.98;79.96;100385.92;1718889;82;21075;-68
2021/11/13 00:59:30;;;;;;;38.17;21.17;;;;;;;0.99;79.86;100384.38;1712508;82;21088;-68
2021/11/13 01:01:57;;;;;;;32.35;19.85;;;;;;;0.99;79.73;100385.72;1715105;82;21438;-68
2021/11/13 01:04:24;;;;;;;34.08;20.72;;;;;;;0.97;79.68;100378.39;1733735;82;21019;-69
2021/11/13 01:06:52;;;;;;;33.20;20.17;;;;;;;0.91;79.69;100383.20;1723794;82;21658;-68
2021/11/13 01:09:19;;;;;;;36.75;21.02;;;;;;;0.86;79.79;100381.59;1706048;82;20988;-69
2021/11/13 01:11:49;;;;;;;38.23;22.52;;;;;;;0.84;79.88;100388.18;1711326;82;21134;-68
2021/11/13 01:14:17;;;;;;;34.38;19.90;;;;;;;0.86;79.77;100392.31;1712016;82;21073;-68
2021/11/13 01:16:44;;;;;;;38.23;21.15;;;;;;;0.86;79.71;100394.16;1721693;82;21016;-68
2021/11/13 01:19:11;;;;;;;37.93;21.55;;;;;;;0.84;79.75;100391.69;1723888;82;21040;-68
2021/11/13 01:21:38;;;;;;;33.88;20.60;;;;;;;0.83;79.83;100390.53;1741610;82;21055;-68
2021/11/13 01:24:07;;;;;;;34.10;20.17;;;;;;;0.83;79.84;100392.70;1723318;82;20999;-68
2021/11/13 01:26:34;;;;;;;35.88;21.25;;;;;;;0.80;79.90;100389.08;1751650;82;21514;-68
2021/11/13 01:29:02;;;;;;;37.88;21.82;;;;;;;0.77;80.01;100393.99;1736856;82;21007;-68
2021/11/13 01:31:30;;;;;;;34.08;19.00;;;;;;;0.71;80.06;100389.41;1729617;82;21074;-68
2021/11/13 01:33:57;;;;;;;38.13;21.62;;;;;;;0.71;80.15;100385.39;1723266;83;21000;-68
2021/11/13 01:36:25;;;;;;;35.45;21.10;;;;;;;0.72;80.16;100388.37;1723167;82;21056;-68
2021/11/13 01:38:51;;;;;;;;;;;;;;;0.74;80.26;100389.02;1725590;83;21115;-69
2021/11/13 01:41:18;;;;;;;38.80;21.17;;;;;;;0.77;80.35;100391.31;1746846;82;20162;-69
2021/11/13 01:43:44;;;;;;;34.33;20.12;;;;;;;0.73;80.51;100390.87;1723301;83;20995;-68
2021/11/13 01:46:11;;;;;;;34.05;20.77;;;;;;;0.72;80.71;100383.01;1723459;82;21023;-68
2021/11/13 01:49:41;;;;;;;36.85;20.62;;;;;;;0.71;81.11;100393.43;1819115;79;22907;-68
2021/11/13 01:52:10;;;;;;;38.15;22.02;;;;;;;0.60;81.39;100391.26;1773410;80;21047;-68
2021/11/13 01:54:40;;;;;;;36.35;21.42;;;;;;;0.60;81.59;100393.44;1745748;81;21054;-68
2021/11/13 01:57:10;;;;;;;35.50;21.27;;;;;;;0.64;81.65;100396.56;1761532;81;21631;-69
2021/11/13 01:59:37;;;;;;;35.13;21.30;;;;;;;0.67;81.70;100402.36;1745567;81;21557;-69
2021/11/13 02:02:05;;;;;;;33.20;20.62;;;;;;;0.64;81.69;100399.23;1739165;81;21113;-68
2021/11/13 02:04:33;;;;;;;32.85;20.90;;;;;;;0.62;81.66;100400.75;1766136;79;21065;-68
2021/11/13 02:07:00;;;;;;;33.33;20.60;;;;;;;0.58;81.66;100405.34;1754169;81;21022;-68
2021/11/13 02:09:27;;;;;;;35.52;21.35;;;;;;;0.50;81.90;100406.28;1761752;81;21498;-68
2021/11/13 02:11:55;;;;;;;32.35;20.17;;;;;;;0.48;82.01;100408.34;1761734;81;21090;-68
2021/11/13 02:14:28;;;;;;;36.73;21.52;;;;;;;0.46;81.98;100404.50;1763410;81;21580;-68
2021/11/13 02:16:55;;;;;;;37.93;21.48;;;;;;;0.46;81.93;100405.03;1753666;81;21588;-68
2021/11/13 02:19:21;;;;;;;34.65;20.85;;;;;;;0.48;82.08;100403.81;1734058;81;21628;-68
2021/11/13 02:21:49;;;;;;;35.80;21.33;;;;;;;0.48;82.13;100401.14;1740017;81;21078;-68
2021/11/13 02:24:15;;;;;;;35.70;21.30;;;;;;;0.50;82.16;100403.10;1748141;81;21114;-69
2021/11/13 02:26:43;;;;;;;34.73;22.55;;;;;;;0.49;82.22;100402.81;1753189;81;21042;-68
2021/11/13 02:29:09;;;;;;;38.88;24.00;;;;;;;0.49;82.38;100404.65;1746236;79;21046;-68
2021/11/13 02:31:41;;;;;;;36.17;23.15;;;;;;;0.46;82.56;100411.20;1739921;81;21038;-68
2021/11/13 02:34:09;;;;;;;43.20;23.85;;;;;;;0.46;82.66;100404.50;1762324;79;21006;-68
2021/11/13 02:36:38;;;;;;;38.67;23.50;;;;;;;0.53;82.56;100406.44;1755536;81;21580;-68
2021/11/13 02:39:09;;;;;;;36.23;21.80;;;;;;;0.55;82.46;100410.58;1757376;81;21038;-68
2021/11/13 02:41:36;;;;;;;37.93;22.80;;;;;;;0.57;82.39;100410.40;1739493;81;21581;-68
2021/11/13 02:44:05;;;;;;;36.75;22.50;;;;;;;0.58;82.33;100414.20;1748035;81;21078;-68
2021/11/13 02:46:33;;;;;;;37.65;22.77;;;;;;;0.61;82.34;100412.48;1733458;82;21113;-68
2021/11/13 02:49:02;;;;;;;37.23;22.77;;;;;;;0.60;82.33;100415.38;1752295;81;21498;-68
2021/11/13 02:51:28;;;;;;;36.93;23.02;;;;;;;0.56;82.47;100415.43;1724683;82;21051;-68
2021/11/13 02:53:55;;;;;;;36.17;23.20;;;;;;;0.51;82.59;100415.99;1729770;82;21040;-67
2021/11/13 02:56:21;;;;;;;38.95;23.73;;;;;;;0.49;82.67;100416.20;1735116;80;20940;-67
2021/11/13 03:05:52;;;;;;;32.38;19.95;;;;;;;0.48;82.41;100413.19;1819375;79;23002;-68
2021/11/13 03:08:31;;;;;;;37.58;21.97;;;;;;;0.40;82.43;100418.66;1760387;80;21062;-68
2021/11/13 03:11:01;;;;;;;34.10;21.10;;;;;;;0.35;82.54;100417.58;1752210;80;21041;-68
2021/11/13 03:13:29;;;;;;;36.70;22.42;;;;;;;0.30;82.61;100411.95;1754858;80;21047;-68
2021/11/13 03:16:00;;;;;;;37.40;22.37;;;;;;;0.30;82.55;100417.30;1743058;80;21035;-68
2021/11/13 03:18:26;;;;;;;35.43;22.50;;;;;;;0.30;82.39;100423.50;1784645;80;21085;-67
2021/11/13 03:20:52;;;;;;;36.05;21.50;;;;;;;0.31;82.28;100432.37;1778728;80;21038;-69
2021/11/13 03:23:19;;;;;;;;;;;;;;;0.29;82.20;100431.70;1759503;81;21545;-68
2021/11/13 03:26:01;;;;;;;36.73;20.68;;;;;;;0.25;82.23;100435.27;1760498;81;20139;-69
2021/11/13 03:28:29;;;;;;;35.83;21.95;;;;;;;0.13;82.46;100432.77;1725534;83;21124;-67
2021/11/13 03:31:01;;;;;;;36.03;22.67;;;;;;;0.04;82.61;100431.20;1732312;82;21639;-67
2021/11/13 03:33:25;;;;;;;36.55;22.45;;;;;;;0.04;82.57;100432.54;1728728;82;21074;-68
2021/11/13 03:35:51;;;;;;;35.15;22.48;;;;;;;0.03;82.42;100431.41;1741086;82;21063;-68
2021/11/13 03:38:18;;;;;;;39.23;22.30;;;;;;;0.03;82.42;100431.41;1742041;81;21078;-67
2021/11/13 03:40:46;;;;;;;38.73;22.37;;;;;;;0.03;82.32;100434.08;1739505;82;21082;-67
2021/11/13 03:43:13;;;;;;;36.42;22.32;;;;;;;0.03;82.38;100435.42;1735901;82;21054;-67
2021/11/13 03:45:40;;;;;;;38.78;23.57;;;;;;;0.02;82.44;100433.75;1740673;82;21057;-67
2021/11/13 03:48:07;;;;;;;32.75;20.30;;;;;;;0.03;82.46;100441.61;1741704;82;21105;-68
2021/11/13 03:50:35;;;;;;;32.80;20.27;;;;;;;-0.02;82.45;100436.80;1735348;82;21668;-67
2021/11/13 03:53:01;;;;;;;33.15;20.90;;;;;;;-0.09;82.50;100439.07;1739625;81;21566;-67
2021/11/13 03:55:31;;;;;;;37.78;22.58;;;;;;;-0.12;82.62;100440.78;1739385;82;21070;-68
2021/11/13 03:57:59;;;;;;;35.95;21.60;;;;;;;-0.16;82.54;100444.34;1729746;82;21070;-68
2021/11/13 04:00:25;;;;;;;33.08;20.85;;;;;;;-0.18;82.52;100437.52;1738805;82;21037;-68
2021/11/13 04:02:53;;;;;;;34.98;21.57;;;;;;;-0.18;82.59;100428.16;1738675;82;21113;-68
2021/11/13 04:05:21;;;;;;;;;;;;;;;-0.15;82.66;100428.61;1731254;81;21067;-68
2021/11/13 04:07:49;;;;;;;32.55;20.50;;;;;;;-0.09;82.75;100431.04;1727393;81;20529;-68
2021/11/13 04:10:16;;;;;;;35.73;21.40;;;;;;;-0.08;82.96;100438.90;1717694;83;21102;-68
2021/11/13 04:12:43;;;;;;;33.75;21.70;;;;;;;-0.03;83.08;100437.81;1727448;83;21023;-68
2021/11/13 04:15:11;;;;;;;32.00;20.37;;;;;;;0.07;83.17;100444.23;1727509;83;21075;-68
2021/11/13 04:17:39;;;;;;;31.25;20.40;;;;;;;0.15;83.23;100440.09;1782166;80;21111;-68
2021/11/13 04:20:07;;;;;;;32.98;21.30;;;;;;;0.17;83.23;100442.09;1774019;80;21577;-74
2021/11/13 04:22:36;;;;;;;33.10;19.92;;;;;;;0.16;83.25;100436.91;1768209;80;21004;-68
2021/11/13 04:25:03;;;;;;;34.10;20.75;;;;;;;0.18;83.33;100435.70;1769230;79;21495;-69
2021/11/13 04:27:29;;;;;;;34.03;21.45;;;;;;;0.23;83.29;100435.14;1749074;81;21080;-68
2021/11/13 04:29:56;;;;;;;34.92;21.05;;;;;;;0.23;83.18;100444.52;1771149;81;21087;-69
2021/11/13 04:32:28;;;;;;;;;;;;;;;0.21;83.07;100435.35;1758342;81;21092;-68
2021/11/13 04:37:18;;;;;;;38.33;23.20;;;;;;;0.22;83.20;100445.52;1742782;81;21390;-68
2021/11/13 04:39:46;;;;;;;39.92;24.15;;;;;;;0.18;83.20;100437.04;1740191;82;21553;-68
2021/11/13 04:42:13;;;;;;;37.48;22.73;;;;;;;0.22;83.13;100438.83;1768176;80;21103;-69
2021/11/13 04:44:39;;;;;;;44.40;25.27;;;;;;;0.22;83.12;100438.33;1778829;80;21090;-69
2021/11/13 04:47:06;;;;;;;46.68;26.62;;;;;;;0.21;83.29;100448.73;1767281;79;21076;-68
2021/11/13 04:49:33;;;;;;;47.48;27.15;;;;;;;0.24;83.53;100450.20;1765827;81;21108;-68
2021/11/13 04:52:01;;;;;;;46.30;24.85;;;;;;;0.30;83.80;100452.12;1778324;81;21052;-68
2021/11/13 04:54:27;;;;;;;46.92;26.80;;;;;;;0.39;83.75;100452.34;1778241;81;21068;-69
2021/11/13 04:56:54;;;;;;;47.15;25.23;;;;;;;0.45;83.60;100455.09;1741395;81;20999;-69
2021/11/13 04:59:20;;;;;;;47.65;26.48;;;;;;;0.48;83.49;100457.90;1764720;81;21049;-69
2021/11/13 05:01:47;;;;;;;43.52;25.23;;;;;;;0.45;83.46;100456.44;1778977;79;21019;-68
2021/11/13 05:04:13;;;;;;;43.60;25.17;;;;;;;0.42;83.62;100465.36;1780310;80;21052;-69
2021/11/13 05:06:40;;;;;;;41.85;24.82;;;;;;;0.42;83.73;100463.52;1792260;80;21060;-68
2021/11/13 05:09:06;;;;;;;42.48;24.63;;;;;;;0.50;83.65;100462.55;1791462;80;21541;-69
2021/11/13 05:11:32;;;;;;;40.08;23.87;;;;;;;0.55;83.65;100466.00;1754179;81;21075;-69
2021/11/13 05:13:59;;;;;;;40.90;24.05;;;;;;;0.64;83.80;100469.70;1731278;82;21549;-68
2021/11/13 05:16:26;;;;;;;33.42;21.90;;;;;;;0.72;83.82;100476.30;1735279;82;20993;-68
2021/11/13 05:18:52;;;;;;;;;;;;;;;0.77;83.86;100487.80;1757670;81;21522;-69
2021/11/13 05:21:18;;;;;;;37.50;22.77;;;;;;;0.85;84.30;100497.87;1695485;82;20134;-67
2021/11/13 05:23:45;;;;;;;36.25;21.80;;;;;;;0.84;84.73;100494.89;1692797;83;21712;-68
2021/11/13 05:26:12;;;;;;;36.98;22.48;;;;;;;0.91;84.80;100498.47;1754839;82;21066;-68
2021/11/13 05:28:43;;;;;;;38.95;23.87;;;;;;;1.04;84.82;100503.62;1755038;82;20979;-68
2021/11/13 05:31:06;;;;;;;39.08;21.85;;;;;;;1.09;84.58;100503.39;1722698;82;21035;-68
2021/11/13 05:33:34;;;;;;;36.17;22.67;;;;;;;1.16;84.40;100505.63;1755014;82;21074;-69
2021/11/13 05:36:00;;;;;;;34.90;22.05;;;;;;;1.21;84.21;100511.22;1723328;83;21027;-68
2021/11/13 05:38:27;;;;;;;28.98;20.32;;;;;;;1.23;84.08;100517.23;1754879;82;21107;-68
2021/11/13 05:40:53;;;;;;;36.63;23.50;;;;;;;1.22;84.17;100520.93;1754841;82;21053;-68
2021/11/13 05:43:20;;;;;;;35.75;21.80;;;;;;;1.19;84.25;100522.66;1763906;81;20985;-68
2021/11/13 05:45:47;;;;;;;35.50;23.18;;;;;;;1.20;84.28;100520.81;1760618;81;20992;-68
2021/11/13 05:48:17;;;;;;;39.48;23.85;;;;;;;1.21;84.21;100523.28;1762410;81;20989;-68
2021/11/13 05:50:43;;;;;;;41.53;24.67;;;;;;;1.24;83.98;100522.90;1742275;81;21371;-68
2021/11/13 05:53:12;;;;;;;38.17;22.65;;;;;;;1.27;83.79;100519.86;1759893;81;21109;-68
2021/11/13 05:55:38;;;;;;;37.60;22.50;;;;;;;1.31;83.55;100524.33;1728447;82;21014;-70
2021/11/13 05:58:05;;;;;;;39.18;23.10;;;;;;;1.31;83.48;100522.45;1730387;82;21585;-68
2021/11/13 06:00:33;;;;;;;98.65;51.08;;;;;;;1.28;83.47;100532.22;1735549;81;21914;-68
2021/11/13 06:02:59;;;;;;;72.00;43.25;;;;;;;1.26;83.56;100536.97;1736129;82;21600;-69
2021/11/13 06:05:26;;;;;;;90.45;52.83;;;;;;;1.29;83.61;100543.28;1729639;82;21542;-68
2021/11/13 06:10:58;;;;;;;86.92;49.73;;;;;;;1.42;83.35;100542.05;1819208;79;23484;-69
2021/11/13 06:13:27;;;;;;;123.02;67.15;;;;;;;1.35;83.35;100549.72;1746966;80;21153;-68
2021/11/13 06:15:53;;;;;;;107.10;56.88;;;;;;;1.38;83.49;100548.82;1734094;81;21073;-67
2021/11/13 06:18:21;;;;;;;93.70;50.67;;;;;;;1.45;83.49;100555.08;1762869;81;21054;-69
2021/11/13 06:20:51;;;;;;;72.90;40.78;;;;;;;1.55;83.41;100556.11;1751065;81;21019;-68
2021/11/13 06:23:18;;;;;;;63.02;36.03;;;;;;;1.67;83.33;100551.86;1744651;81;21031;-68
2021/11/13 06:25:45;;;;;;;50.60;32.65;;;;;;;1.80;83.24;100557.86;1763139;81;21557;-68
2021/11/13 06:28:13;;;;;;;47.70;30.32;;;;;;;1.98;83.24;100559.00;1760181;81;21174;-68
2021/11/13 06:30:40;;;;;;;50.33;31.85;;;;;;;2.20;83.16;100566.48;1758670;81;21062;-68
2021/11/13 06:33:06;;;;;;;50.63;33.45;;;;;;;2.40;82.92;100560.73;1753207;81;21034;-69
2021/11/13 06:35:33;;;;;;;52.15;34.90;;;;;;;2.65;82.90;100558.37;1751865;81;21059;-68
2021/11/13 06:37:59;;;;;;;56.30;36.00;;;;;;;2.86;82.65;100556.90;1748912;81;21042;-68
2021/11/13 06:40:29;;;;;;;46.90;32.45;;;;;;;3.10;82.59;100560.89;1753019;81;21532;-67
2021/11/13 06:42:57;;;;;;;50.03;32.63;;;;;;;3.33;82.64;100559.19;1754316;81;21031;-68
2021/11/13 06:45:24;;;;;;;46.77;32.73;;;;;;;3.58;82.65;100555.37;1758987;81;21042;-68
2021/11/13 06:47:51;;;;;;;44.63;31.02;;;;;;;3.81;82.36;100561.17;1751141;81;21800;-68
2021/11/13 06:50:17;;;;;;;48.15;34.50;;;;;;;3.91;81.79;100566.45;1757721;81;21537;-68
2021/11/13 06:52:43;;;;;;;48.90;34.78;;;;;;;4.01;81.40;100565.50;1760939;81;21604;-68
2021/11/13 06:55:10;;;;;;;55.17;39.95;;;;;;;4.13;81.42;100566.22;1746798;81;21568;-69
2021/11/13 06:57:39;;;;;;;55.17;39.48;;;;;;;4.28;81.31;100562.26;1751242;81;21038;-69
2021/11/13 07:00:08;;;;;;;66.70;43.80;;;;;;;4.47;80.92;100572.66;1739727;81;21057;-68
2021/11/13 07:02:34;;;;;;;66.62;44.70;;;;;;;4.71;80.50;100570.61;1743650;81;21086;-69
2021/11/13 07:05:02;;;;;;;61.40;40.35;;;;;;;4.94;80.15;100568.23;1735933;81;21113;-69
2021/11/13 07:07:32;;;;;;;63.23;42.13;;;;;;;5.11;79.34;100575.83;1734292;81;21106;-69
2021/11/13 07:09:57;;;;;;;51.18;34.85;;;;;;;5.26;79.13;100569.10;1743940;80;21051;-68
2021/11/13 07:12:25;;;;;;;44.60;32.05;;;;;;;5.43;79.29;100566.18;1734152;82;21070;-68
2021/11/13 07:14:51;;;;;;;;;;;;;;;5.68;79.51;100574.31;1739655;82;21601;-69
2021/11/13 07:17:17;;;;;;;50.28;34.70;;;;;;;5.87;78.83;100582.83;1739670;80;20121;-68
2021/11/13 07:19:44;;;;;;;44.60;30.75;;;;;;;5.85;78.10;100587.58;1741454;82;21524;-68
2021/11/13 07:22:10;;;;;;;42.25;30.43;;;;;;;5.96;77.51;100589.59;1734791;82;21043;-68
2021/11/13 07:24:39;;;;;;;45.15;32.05;;;;;;;6.07;77.19;100590.75;1751995;82;21515;-69
2021/11/13 07:27:05;;;;;;;41.68;30.50;;;;;;;6.00;76.42;100596.73;1747742;82;21043;-68
2021/11/13 07:29:37;;;;;;;37.20;28.20;;;;;;;6.04;76.68;100599.31;1747266;82;21062;-68
2021/11/13 07:32:01;;;;;;;34.18;25.27;;;;;;;6.05;76.19;100600.97;1745231;82;21042;-68
2021/11/13 07:34:27;;;;;;;;;;;;;;;6.23;76.56;100594.78;1755181;82;21058;-68
2021/11/13 07:36:53;;;;;;;29.18;23.27;;;;;;;6.57;77.06;100586.61;1752865;81;20103;-69
2021/11/13 07:39:19;;;;;;;36.33;25.68;;;;;;;6.86;77.46;100586.70;1745107;82;21038;-69
2021/11/13 07:41:46;;;;;;;32.88;25.23;;;;;;;7.18;77.40;100587.33;1743002;82;21110;-69
2021/11/13 07:44:16;;;;;;;38.95;27.67;;;;;;;7.49;77.35;100595.20;1737098;82;21680;-69
2021/11/13 07:46:42;;;;;;;37.55;27.73;;;;;;;7.70;76.50;100586.24;1732875;82;21035;-69
2021/11/13 07:49:10;;;;;;;;;;;;;;;7.81;75.87;100580.02;1743294;82;21038;-69
2021/11/13 07:51:37;;;;;;;33.35;25.15;;;;;;;7.79;74.66;100585.70;1752620;82;20106;-68
2021/11/13 07:54:03;;;;;;;37.60;28.25;;;;;;;7.81;74.57;100578.67;1750642;82;21018;-70
2021/11/13 07:56:29;;;;;;;37.83;26.93;;;;;;;7.88;73.91;100582.09;1738846;82;21593;-69
2021/11/13 07:58:56;;;;;;;37.05;27.82;;;;;;;7.91;73.38;100581.62;1722927;83;21030;-69
2021/11/13 08:01:22;;;;;;;35.05;26.68;;;;;;;7.79;72.35;100587.58;1730677;80;21007;-68
2021/11/13 08:03:49;;;;;;;32.50;24.23;;;;;;;7.50;71.66;100581.97;1725132;82;21047;-69
2021/11/13 08:06:17;;;;;;;35.28;25.17;;;;;;;7.39;72.52;100590.05;1738396;82;20995;-67
2021/11/13 08:08:43;;;;;;;38.00;28.20;;;;;;;7.59;73.38;100583.80;1745224;82;21465;-64
2021/11/13 08:11:11;;;;;;;34.75;25.88;;;;;;;7.84;72.91;100584.45;1749166;81;21506;-66
2021/11/13 08:13:39;;;;;;;38.15;27.73;;;;;;;7.83;71.35;100586.86;1725059;82;21531;-65
2021/11/13 08:16:06;;;;;;;37.15;27.65;;;;;;;7.68;71.64;100590.55;1724608;82;21569;-64
2021/11/13 08:18:33;;;;;;;33.95;26.65;;;;;;;7.83;72.38;100592.83;1720000;83;20999;-65
2021/11/13 08:21:00;;;;;;;40.40;26.73;;;;;;;8.10;72.33;100588.61;1734216;80;21015;-64
2021/11/13 08:23:26;;;;;;;33.70;26.40;;;;;;;8.31;71.29;100584.52;1749671;82;21534;-65
2021/11/13 08:25:53;;;;;;;35.23;27.10;;;;;;;8.34;70.36;100584.87;1749872;82;21047;-64
2021/11/13 08:28:21;;;;;;;35.38;25.80;;;;;;;8.45;71.00;100588.64;1744205;82;21086;-64
2021/11/13 08:30:48;;;;;;;32.55;24.70;;;;;;;8.75;71.48;100581.70;1733508;82;21018;-65
2021/11/13 08:33:14;;;;;;;27.65;21.93;;;;;;;9.17;71.52;100585.83;1734454;82;21048;-65
2021/11/13 08:35:42;;;;;;;;;;;;;;;9.54;70.99;100587.59;1744903;80;21448;-65
2021/11/13 08:38:16;;;;;;;31.95;23.57;;;;;;;9.91;69.78;100587.45;1728808;82;20108;-65
2021/11/13 08:40:45;;;;;;;33.85;24.18;;;;;;;10.07;68.89;100589.87;1736768;82;21054;-64
2021/11/13 08:43:12;;;;;;;32.90;23.75;;;;;;;10.39;67.97;100588.76;1732082;82;21027;-65
2021/11/13 08:45:40;;;;;;;34.25;26.07;;;;;;;10.74;67.14;100587.06;1719978;83;21070;-65
2021/11/13 08:48:06;;;;;;;34.60;25.52;;;;;;;11.03;65.50;100586.34;1724836;80;21070;-64
2021/11/13 08:50:33;;;;;;;36.42;27.77;;;;;;;11.12;64.16;100575.30;1660424;85;21602;-65
2021/11/13 08:53:01;;;;;;;;;;;;;;;11.17;63.04;100576.17;1682436;84;21566;-64
2021/11/13 08:55:31;;;;;;;32.05;23.67;;;;;;;11.26;62.58;100578.74;1679983;85;20111;-65
2021/11/13 08:57:57;;;;;;;31.17;23.57;;;;;;;11.26;62.19;100576.55;1700809;84;21115;-65
2021/11/13 09:00:38;;;;;;;26.20;21.37;;;;;;;11.50;62.07;100580.63;1682387;84;21068;-64
2021/11/13 09:03:06;;;;;;;29.48;22.75;;;;;;;11.79;60.88;100579.84;1698972;84;21058;-64
2021/11/13 09:05:33;;;;;;;25.80;19.85;;;;;;;11.92;60.07;100565.77;1682442;84;21080;-65
2021/11/13 09:08:01;;;;;;;27.77;21.60;;;;;;;12.13;59.11;100578.48;1682281;84;21600;-66
2021/11/13 09:10:29;;;;;;;29.15;21.95;;;;;;;12.30;58.85;100576.95;1682854;85;21090;-65
2021/11/13 09:12:56;;;;;;;26.80;20.25;;;;;;;12.51;57.30;100572.44;1682314;84;21137;-65
2021/11/13 09:15:26;;;;;;;25.10;19.37;;;;;;;12.43;55.96;100576.52;1682619;85;21026;-65
2021/11/13 09:17:54;;;;;;;23.67;18.40;;;;;;;12.15;55.90;100571.41;1682540;85;21101;-65
2021/11/13 09:20:21;;;;;;;26.02;19.95;;;;;;;12.18;56.16;100575.80;1682695;85;21105;-65
2021/11/13 09:22:49;;;;;;;27.27;21.25;;;;;;;12.35;56.02;100578.37;1682391;84;21117;-65
2021/11/13 09:25:16;;;;;;;28.32;21.82;;;;;;;12.51;54.34;100575.17;1682445;84;21081;-65
2021/11/13 09:27:45;;;;;;;27.87;20.95;;;;;;;12.02;54.09;100567.20;1682460;85;21104;-64
2021/11/13 09:30:14;;;;;;;25.37;20.10;;;;;;;11.92;55.56;100574.77;1682590;85;21556;-65
2021/11/13 09:32:43;;;;;;;26.05;20.57;;;;;;;12.07;55.19;100571.34;1682513;85;21062;-65
2021/11/13 09:35:11;;;;;;;22.27;17.52;;;;;;;12.13;54.28;100570.30;1682362;85;21619;-65
2021/11/13 09:37:38;;;;;;;22.40;17.30;;;;;;;12.14;54.53;100561.03;1682598;85;21077;-65
2021/11/13 09:40:06;;;;;;;25.02;18.57;;;;;;;12.08;53.94;100562.05;1682525;85;21077;-65
2021/11/13 09:42:33;;;;;;;25.32;18.35;;;;;;;11.97;54.00;100566.61;1682431;85;21576;-65
2021/11/13 09:45:00;;;;;;;22.17;17.67;;;;;;;11.78;54.16;100561.82;1682937;85;21529;-65
2021/11/13 09:47:26;;;;;;;23.73;18.23;;;;;;;11.72;54.44;100556.88;1682875;85;21657;-65
2021/11/13 09:49:52;;;;;;;;;;;;;;;11.85;54.37;100559.70;1685295;85;21592;-65
2021/11/13 09:52:18;;;;;;;21.73;17.32;;;;;;;11.88;54.28;100555.08;1682532;85;20130;-65
2021/11/13 09:54:45;;;;;;;24.75;19.05;;;;;;;11.93;54.88;100549.14;1682808;85;21014;-65
2021/11/13 09:57:11;;;;;;;;;;;;;;;11.99;53.29;100549.99;1684818;84;21077;-65
2021/11/13 09:59:37;;;;;;;28.67;20.88;;;;;;;11.84;53.78;100554.78;1682702;85;20448;-65
2021/11/13 10:02:05;;;;;;;24.80;18.20;;;;;;;11.73;54.23;100556.31;1682281;84;21148;-65
2021/11/13 10:04:31;;;;;;;27.95;20.60;;;;;;;11.77;54.57;100558.80;1682908;84;21788;-65
2021/11/13 10:06:58;;;;;;;25.82;19.30;;;;;;;11.86;54.39;100558.09;1682379;85;21612;-65
2021/11/13 10:09:25;;;;;;;67.75;50.05;;;;;;;11.73;53.51;100553.05;1682318;85;21057;-65
2021/11/13 10:11:53;;;;;;;28.73;21.85;;;;;;;11.47;54.25;100562.05;1684740;84;21135;-65
2021/11/13 10:14:34;;;;;;;27.22;21.62;;;;;;;11.40;55.14;100561.44;1686041;85;21037;-65
2021/11/13 10:17:02;;;;;;;28.90;22.37;;;;;;;11.32;54.94;100569.53;1685976;84;21088;-65
2021/11/13 10:19:30;;;;;;;30.75;23.05;;;;;;;11.27;55.14;100565.38;1686204;84;21005;-65
2021/11/13 10:21:58;;;;;;;32.83;22.42;;;;;;;11.32;55.53;100561.36;1686408;85;21117;-64
2021/11/13 10:24:27;;;;;;;34.67;25.68;;;;;;;11.35;54.95;100560.84;1686174;84;21057;-65
2021/11/13 10:27:04;;;;;;;26.50;19.80;;;;;;;11.42;55.48;100558.73;1686242;85;21029;-65
2021/11/13 10:29:36;;;;;;;26.05;17.80;;;;;;;11.65;55.23;100552.14;1686626;85;21622;-65
2021/11/13 10:32:07;;;;;;;24.70;17.82;;;;;;;11.89;54.99;100555.37;1686120;85;21092;-65
2021/11/13 10:34:38;;;;;;;22.17;16.52;;;;;;;11.91;53.59;100549.92;1686317;84;21056;-65
2021/11/13 10:37:07;;;;;;;24.35;17.23;;;;;;;11.87;53.80;100552.89;1685908;84;21524;-65
2021/11/13 10:39:38;;;;;;;25.15;17.82;;;;;;;11.71;52.86;100555.76;1686454;84;21504;-64
2021/11/13 10:42:07;;;;;;;23.65;17.12;;;;;;;11.62;53.92;100560.81;1686382;84;21615;-65
2021/11/13 10:44:41;;;;;;;21.40;15.25;;;;;;;11.81;53.97;100560.76;1686227;85;21559;-65
2021/11/13 10:47:20;;;;;;;22.15;15.38;;;;;;;12.01;53.10;100555.20;1686049;85;21068;-64
2021/11/13 10:49:48;;;;;;;21.17;14.35;;;;;;;12.03;52.43;100551.12;1686396;85;21520;-65
2021/11/13 10:52:18;;;;;;;22.22;15.58;;;;;;;12.07;51.42;100551.42;1686131;85;21088;-65
2021/11/13 10:54:48;;;;;;;20.17;13.90;;;;;;;12.16;51.77;100552.02;1686317;85;21021;-65
2021/11/13 10:57:30;;;;;;;18.70;14.33;;;;;;;12.28;50.94;100550.47;1686230;85;21592;-65
2021/11/13 11:00:15;;;;;;;20.37;14.50;;;;;;;12.23;50.15;100558.61;1686522;84;21551;-64
2021/11/13 11:03:04;;;;;;;21.60;14.85;;;;;;;12.20;50.60;100559.14;1686262;85;21128;-65
2021/11/13 11:05:48;;;;;;;18.55;13.62;;;;;;;12.28;50.71;100554.56;1685943;85;21092;-65
2021/11/13 11:08:31;;;;;;;18.85;13.45;;;;;;;12.45;50.12;100553.31;1686285;85;21081;-65
2021/11/13 11:11:01;;;;;;;20.17;14.55;;;;;;;12.69;49.95;100555.07;1685494;84;21192;-64
2021/11/13 11:13:50;;;;;;;20.15;14.60;;;;;;;12.86;48.77;100548.86;1682635;85;21113;-65
2021/11/13 11:16:28;;;;;;;20.23;14.75;;;;;;;12.85;48.94;100550.52;1682716;85;21021;-65
2021/11/13 11:19:07;;;;;;;19.80;14.53;;;;;;;12.85;48.90;100547.78;1682941;85;21014;-64
2021/11/13 11:21:46;;;;;;;20.95;14.45;;;;;;;13.07;49.13;100547.59;1682744;85;21549;-65
2021/11/13 11:24:34;;;;;;;19.42;14.13;;;;;;;13.34;48.34;100546.33;1682786;85;21512;-64
2021/11/13 11:27:06;;;;;;;20.20;13.80;;;;;;;13.54;47.61;100552.36;1682452;85;21054;-64
2021/11/13 11:29:36;;;;;;;18.92;13.90;;;;;;;13.63;47.26;100552.12;1682671;85;21021;-65
2021/11/13 11:32:06;;;;;;;22.20;14.90;;;;;;;13.82;47.00;100544.17;1682515;84;21053;-65
2021/11/13 11:34:36;;;;;;;27.02;18.23;;;;;;;14.08;46.38;100549.09;1686053;84;20992;-65
2021/11/13 11:37:19;;;;;;;24.92;16.52;;;;;;;14.30;46.50;100551.82;1688192;84;21597;-65